Time;durP1;ratioP1;P1;durP2;ratioP2;P2;SDS_P1;SDS_P2;PMS_P1;PMS_P2;Temp;Humidity;BMP_temperature;BMP_pressure;BME280_temperature;BME280_humidity;BME280_pressure;Samples;Min_cycle;Max_cycle;Signal;HPM_P1;HPM_P2
2022/10/03 00:01:38;;;;;;;;;;;;;;;;;;5117910;28;19918;-76
2022/10/03 00:04:03;;;;;;;;;;;;;;;;;;5099323;28;19908;-76
2022/10/03 00:06:29;;;;;;;;;;;;;;;;;;5117570;28;19908;-77
2022/10/03 00:08:55;;;;;;;;;;;;;;;;;;5117774;28;19958;-77
2022/10/03 00:11:22;;;;;;;;;;;;;;;;;;5117465;28;19922;-76
2022/10/03 00:13:48;;;;;;;;;;;;;;;;;;5117416;28;20360;-77
2022/10/03 00:16:14;;;;;;;;;;;;;;;;;;5117326;28;19915;-76
2022/10/03 00:18:40;;;;;;;;;;;;;;;;;;5117605;28;19908;-76
2022/10/03 00:21:06;;;;;;;;;;;;;;;;;;5117135;28;20006;-76
2022/10/03 00:23:34;;;;;;;;;;;;;;;;;;5117232;28;19942;-77
2022/10/03 00:25:59;;;;;;;;;;;;;;;;;;5117752;28;19915;-76
2022/10/03 00:28:25;;;;;;;;;;;;;;;;;;5117030;28;19912;-77
2022/10/03 00:30:51;;;;;;;;;;;;;;;;;;5117077;28;19908;-77
2022/10/03 00:33:17;;;;;;;;;;;;;;;;;;5117019;28;19915;-77
2022/10/03 00:35:43;;;;;;;;;;;;;;;;;;5117262;28;19908;-78
2022/10/03 00:38:10;;;;;;;;;;;;;;;;;;5117200;28;19908;-77
2022/10/03 00:40:36;;;;;;;;;;;;;;;;;;5098490;28;19923;-78
2022/10/03 00:43:02;;;;;;;;;;;;;;;;;;5117105;28;19972;-76
2022/10/03 00:45:28;;;;;;;;;;;;;;;;;;5116790;28;20367;-76
2022/10/03 00:47:54;;;;;;;;;;;;;;;;;;5116812;28;19907;-77
2022/10/03 00:50:20;;;;;;;;;;;;;;;;;;5117014;28;19931;-77
2022/10/03 00:52:46;;;;;;;;;;;;;;;;;;5116644;28;19943;-78
2022/10/03 00:55:13;;;;;;;;;;;;;;;;;;5117138;28;19912;-76
2022/10/03 00:57:39;;;;;;;;;;;;;;;;;;5116575;28;20365;-77
2022/10/03 01:00:06;;;;;;;;;;;;;;;;;;5116316;28;19920;-76
2022/10/03 01:02:32;;;;;;;;;;;;;;;;;;5098119;28;20318;-76
2022/10/03 01:04:58;;;;;;;;;;;;;;;;;;5116480;28;19908;-76
2022/10/03 01:07:24;;;;;;;;;;;;;;;;;;5116404;28;19957;-76
2022/10/03 01:09:50;;;;;;;;;;;;;;;;;;5116451;28;20359;-76
2022/10/03 01:12:16;;;;;;;;;;;;;;;;;;5116539;28;19912;-76
2022/10/03 01:14:42;;;;;;;;;;;;;;;;;;5116246;28;20375;-76
2022/10/03 01:17:09;;;;;;;;;;;;;;;;;;5116190;28;19957;-77
2022/10/03 01:19:36;;;;;;;;;;;;;;;;;;5116147;28;19908;-76
2022/10/03 01:22:02;;;;;;;;;;;;;;;;;;5116024;28;19916;-76
2022/10/03 01:24:28;;;;;;;;;;;;;;;;;;5116004;28;19990;-76
2022/10/03 01:26:54;;;;;;;;;;;;;;;;;;5115904;28;19911;-77
2022/10/03 01:32:04;;;;;;;;;;;;;;;;;;5115724;28;19952;-76
2022/10/03 01:34:30;;;;;;;;;;;;;;;;;;5115810;28;19994;-76
2022/10/03 01:37:00;;;;;;;;;;;;;;;;;;5116323;28;20348;-76
2022/10/03 01:39:25;;;;;;;;;;;;;;;;;;5097434;28;20367;-76
2022/10/03 01:41:51;;;;;;;;;;;;;;;;;;5116174;28;20033;-76
2022/10/03 01:44:18;;;;;;;;;;;;;;;;;;5115669;28;19914;-76
2022/10/03 01:46:45;;;;;;;;;;;;;;;;;;5097330;28;19915;-76
2022/10/03 01:49:11;;;;;;;;;;;;;;;;;;5115573;28;20363;-76
2022/10/03 01:51:37;;;;;;;;;;;;;;;;;;5116077;28;19957;-77
2022/10/03 01:54:02;;;;;;;;;;;;;;;;;;5115485;28;19908;-77
2022/10/03 01:56:28;;;;;;;;;;;;;;;;;;5115967;28;19915;-77
2022/10/03 01:58:55;;;;;;;;;;;;;;;;;;5115359;28;19947;-78
2022/10/03 02:01:21;;;;;;;;;;;;;;;;;;5114813;28;19919;-76
2022/10/03 02:03:48;;;;;;;;;;;;;;;;;;5115509;28;19914;-76
2022/10/03 02:06:14;;;;;;;;;;;;;;;;;;5115250;28;20260;-77
2022/10/03 02:08:39;;;;;;;;;;;;;;;;;;5115735;28;19933;-76
2022/10/03 02:11:08;;;;;;;;;;;;;;;;;;5115409;28;19991;-77
2022/10/03 02:13:35;;;;;;;;;;;;;;;;;;5115051;28;19908;-77
2022/10/03 02:16:01;;;;;;;;;;;;;;;;;;5115299;28;19912;-77
2022/10/03 02:18:27;;;;;;;;;;;;;;;;;;5114950;28;19915;-77
2022/10/03 02:20:53;;;;;;;;;;;;;;;;;;5096542;28;19918;-75
2022/10/03 02:23:19;;;;;;;;;;;;;;;;;;5114125;28;19914;-77
2022/10/03 02:25:45;;;;;;;;;;;;;;;;;;5114810;28;19908;-77
2022/10/03 02:28:11;;;;;;;;;;;;;;;;;;5115326;28;20383;-78
2022/10/03 02:30:37;;;;;;;;;;;;;;;;;;5114771;28;19914;-76
2022/10/03 02:33:03;;;;;;;;;;;;;;;;;;5115053;28;19915;-77
2022/10/03 02:35:29;;;;;;;;;;;;;;;;;;5114709;28;19916;-77
2022/10/03 02:37:55;;;;;;;;;;;;;;;;;;5114685;28;19912;-78
2022/10/03 02:40:21;;;;;;;;;;;;;;;;;;5115134;28;20374;-77
2022/10/03 02:42:49;;;;;;;;;;;;;;;;;;5114595;28;19952;-77
2022/10/03 02:45:14;;;;;;;;;;;;;;;;;;5114550;28;19922;-76
2022/10/03 02:47:40;;;;;;;;;;;;;;;;;;5114800;28;19908;-78
2022/10/03 02:50:06;;;;;;;;;;;;;;;;;;5114505;28;19973;-76
2022/10/03 02:52:32;;;;;;;;;;;;;;;;;;5114412;28;19908;-76
2022/10/03 02:54:58;;;;;;;;;;;;;;;;;;5115212;28;19990;-77
2022/10/03 02:57:24;;;;;;;;;;;;;;;;;;5114652;28;19922;-77
2022/10/03 02:59:50;;;;;;;;;;;;;;;;;;5114521;28;19926;-77
2022/10/03 03:02:16;;;;;;;;;;;;;;;;;;5114236;28;20365;-76
2022/10/03 03:04:41;;;;;;;;;;;;;;;;;;5114331;28;19908;-77
2022/10/03 03:07:07;;;;;;;;;;;;;;;;;;5114504;28;19931;-77
2022/10/03 03:09:33;;;;;;;;;;;;;;;;;;5114502;28;19954;-76
2022/10/03 03:12:00;;;;;;;;;;;;;;;;;;5114159;28;19952;-77
2022/10/03 03:14:27;;;;;;;;;;;;;;;;;;5114732;28;19912;-78
2022/10/03 03:16:53;;;;;;;;;;;;;;;;;;5114465;28;20279;-76
2022/10/03 03:19:19;;;;;;;;;;;;;;;;;;5114181;28;19907;-75
2022/10/03 03:21:45;;;;;;;;;;;;;;;;;;5114076;28;20356;-76
2022/10/03 03:24:11;;;;;;;;;;;;;;;;;;5114104;28;19912;-77
2022/10/03 03:26:37;;;;;;;;;;;;;;;;;;5114331;28;19950;-76
2022/10/03 03:29:03;;;;;;;;;;;;;;;;;;5113914;28;19960;-77
2022/10/03 03:31:29;;;;;;;;;;;;;;;;;;5114281;28;19908;-77
2022/10/03 03:33:55;;;;;;;;;;;;;;;;;;5116103;28;19908;-75
2022/10/03 03:36:21;;;;;;;;;;;;;;;;;;5118673;28;20323;-77
2022/10/03 03:38:47;;;;;;;;;;;;;;;;;;5118365;28;19911;-76
2022/10/03 03:41:13;;;;;;;;;;;;;;;;;;5117976;28;19964;-76
2022/10/03 03:43:39;;;;;;;;;;;;;;;;;;5118019;28;19907;-77
2022/10/03 03:46:05;;;;;;;;;;;;;;;;;;5099430;28;20287;-76
2022/10/03 03:48:33;;;;;;;;;;;;;;;;;;5118475;28;19915;-76
2022/10/03 03:50:59;;;;;;;;;;;;;;;;;;5117854;28;19915;-76
2022/10/03 03:53:25;;;;;;;;;;;;;;;;;;5117796;28;19907;-76
2022/10/03 03:55:52;;;;;;;;;;;;;;;;;;5118316;28;19915;-76
2022/10/03 03:58:17;;;;;;;;;;;;;;;;;;5118011;28;20002;-77
2022/10/03 04:00:44;;;;;;;;;;;;;;;;;;5117393;28;20011;-75
2022/10/03 04:03:11;;;;;;;;;;;;;;;;;;5117627;28;19930;-77
2022/10/03 04:05:37;;;;;;;;;;;;;;;;;;5117560;28;19908;-77
2022/10/03 04:08:11;;;;;;;;;;;;;;;;;;5117547;28;19912;-78
2022/10/03 04:10:37;;;;;;;;;;;;;;;;;;5117863;28;19951;-77
2022/10/03 04:13:03;;;;;;;;;;;;;;;;;;5117471;28;19908;-76
2022/10/03 04:15:29;;;;;;;;;;;;;;;;;;5117425;28;20375;-77
2022/10/03 04:20:39;;;;;;;;;;;;;;;;;;5116993;28;19919;-76
2022/10/03 04:23:05;;;;;;;;;;;;;;;;;;5117492;28;19912;-77
2022/10/03 04:25:31;;;;;;;;;;;;;;;;;;5117186;28;19943;-78
2022/10/03 04:27:57;;;;;;;;;;;;;;;;;;5117374;28;19972;-77
2022/10/03 04:30:23;;;;;;;;;;;;;;;;;;5117116;28;19908;-77
2022/10/03 04:32:49;;;;;;;;;;;;;;;;;;5098787;28;19997;-76
2022/10/03 04:35:15;;;;;;;;;;;;;;;;;;5117053;28;19943;-77
2022/10/03 04:37:41;;;;;;;;;;;;;;;;;;5117528;28;19915;-77
2022/10/03 04:40:07;;;;;;;;;;;;;;;;;;5116926;28;19996;-77
2022/10/03 04:42:33;;;;;;;;;;;;;;;;;;5116803;28;20360;-76
2022/10/03 04:44:59;;;;;;;;;;;;;;;;;;5116006;28;20371;-78
2022/10/03 04:47:25;;;;;;;;;;;;;;;;;;5117354;28;19914;-75
2022/10/03 04:49:51;;;;;;;;;;;;;;;;;;5116703;28;19907;-76
2022/10/03 04:52:18;;;;;;;;;;;;;;;;;;5117285;28;20003;-77
2022/10/03 04:54:47;;;;;;;;;;;;;;;;;;5116695;28;20287;-76
2022/10/03 04:57:12;;;;;;;;;;;;;;;;;;5117724;28;19915;-76
2022/10/03 04:59:38;;;;;;;;;;;;;;;;;;5116365;28;20287;-77
2022/10/03 05:02:04;;;;;;;;;;;;;;;;;;5116420;28;19912;-77
2022/10/03 05:04:30;;;;;;;;;;;;;;;;;;5116493;28;19940;-76
2022/10/03 05:06:56;;;;;;;;;;;;;;;;;;5116400;28;19911;-76
2022/10/03 05:09:22;;;;;;;;;;;;;;;;;;5116943;28;19908;-76
2022/10/03 05:11:48;;;;;;;;;;;;;;;;;;5116352;28;20041;-77
2022/10/03 05:14:14;;;;;;;;;;;;;;;;;;5116283;28;19915;-76
2022/10/03 05:16:41;;;;;;;;;;;;;;;;;;5116182;28;19907;-77
2022/10/03 05:19:07;;;;;;;;;;;;;;;;;;5116761;28;19908;-77
2022/10/03 05:21:33;;;;;;;;;;;;;;;;;;5116334;28;19972;-76
2022/10/03 05:24:02;;;;;;;;;;;;;;;;;;5116359;28;19908;-76
2022/10/03 05:26:28;;;;;;;;;;;;;;;;;;5097808;28;19908;-76
2022/10/03 05:28:54;;;;;;;;;;;;;;;;;;5115954;28;19935;-77
2022/10/03 05:31:20;;;;;;;;;;;;;;;;;;5116535;28;20378;-78
2022/10/03 05:33:47;;;;;;;;;;;;;;;;;;5115861;28;19956;-77
2022/10/03 05:36:14;;;;;;;;;;;;;;;;;;5097290;28;20436;-77
2022/10/03 05:38:40;;;;;;;;;;;;;;;;;;5115771;28;19908;-77
2022/10/03 05:41:06;;;;;;;;;;;;;;;;;;5115673;28;19911;-77
2022/10/03 05:43:34;;;;;;;;;;;;;;;;;;5116213;28;19971;-77
2022/10/03 05:46:01;;;;;;;;;;;;;;;;;;5115641;28;19908;-77
2022/10/03 05:48:27;;;;;;;;;;;;;;;;;;5115586;28;19938;-77
2022/10/03 05:50:57;;;;;;;;;;;;;;;;;;5115876;28;19908;-77
2022/10/03 05:53:24;;;;;;;;;;;;;;;;;;5116040;28;20308;-76
2022/10/03 05:55:49;;;;;;;;;;;;;;;;;;5115964;28;19940;-76
2022/10/03 05:58:16;;;;;;;;;;;;;;;;;;5115410;28;19908;-77
2022/10/03 06:00:42;;;;;;;;;;;;;;;;;;5115169;28;19923;-76
2022/10/03 06:03:08;;;;;;;;;;;;;;;;;;5115277;28;19960;-77
2022/10/03 06:05:34;;;;;;;;;;;;;;;;;;5115270;28;19907;-76
2022/10/03 06:07:59;;;;;;;;;;;;;;;;;;5096878;28;19915;-77
2022/10/03 06:10:25;;;;;;;;;;;;;;;;;;5115156;28;19957;-76
2022/10/03 06:12:51;;;;;;;;;;;;;;;;;;5115393;28;19908;-76
2022/10/03 06:15:18;;;;;;;;;;;;;;;;;;5115051;28;20018;-77
2022/10/03 06:17:44;;;;;;;;;;;;;;;;;;5115006;28;19914;-76
2022/10/03 06:20:10;;;;;;;;;;;;;;;;;;5114918;28;19947;-76
2022/10/03 06:22:36;;;;;;;;;;;;;;;;;;5115154;28;19959;-77
2022/10/03 06:25:01;;;;;;;;;;;;;;;;;;5114876;28;19912;-76
2022/10/03 06:27:28;;;;;;;;;;;;;;;;;;5114858;28;19907;-76
2022/10/03 06:29:54;;;;;;;;;;;;;;;;;;5114819;28;19908;-77
2022/10/03 06:32:20;;;;;;;;;;;;;;;;;;5115037;28;19956;-76
2022/10/03 06:34:47;;;;;;;;;;;;;;;;;;5114686;28;19912;-76
2022/10/03 06:37:13;;;;;;;;;;;;;;;;;;5114685;28;19912;-77
2022/10/03 06:39:39;;;;;;;;;;;;;;;;;;5114924;28;20329;-77
2022/10/03 06:42:06;;;;;;;;;;;;;;;;;;5114808;28;19912;-76
2022/10/03 06:44:32;;;;;;;;;;;;;;;;;;5115204;28;20390;-77
2022/10/03 06:46:58;;;;;;;;;;;;;;;;;;5114494;28;20003;-76
2022/10/03 06:49:24;;;;;;;;;;;;;;;;;;5114747;28;19908;-78
2022/10/03 06:51:50;;;;;;;;;;;;;;;;;;5114447;28;20002;-76
2022/10/03 06:54:16;;;;;;;;;;;;;;;;;;5115009;28;20390;-76
2022/10/03 06:56:42;;;;;;;;;;;;;;;;;;5114859;28;19937;-77
2022/10/03 06:59:08;;;;;;;;;;;;;;;;;;5114145;28;19954;-77
2022/10/03 07:01:34;;;;;;;;;;;;;;;;;;5104612;28;19964;-77
2022/10/03 07:04:00;;;;;;;;;;;;;;;;;;5105933;28;19908;-76
2022/10/03 07:06:26;;;;;;;;;;;;;;;;;;5103407;28;20304;-77
2022/10/03 07:08:52;;;;;;;;;;;;;;;;;;5105573;28;20101;-76
2022/10/03 07:11:19;;;;;;;;;;;;;;;;;;5103905;28;19939;-77
2022/10/03 07:13:45;;;;;;;;;;;;;;;;;;5105181;28;19913;-77
2022/10/03 07:16:11;;;;;;;;;;;;;;;;;;5105283;28;19920;-74
2022/10/03 07:18:37;;;;;;;;;;;;;;;;;;5096281;28;19919;-79
2022/10/03 07:21:03;;;;;;;;;;;;;;;;;;5093685;28;19912;-82
2022/10/03 07:23:28;;;;;;;;;;;;;;;;;;5098098;28;19927;-78
2022/10/03 07:25:54;;;;;;;;;;;;;;;;;;5111860;28;19912;-76
2022/10/03 07:28:20;;;;;;;;;;;;;;;;;;5111929;28;20017;-78
2022/10/03 07:30:46;;;;;;;;;;;;;;;;;;5075913;28;19912;-80
2022/10/03 07:33:12;;;;;;;;;;;;;;;;;;5094716;28;19931;-80
2022/10/03 07:41:07;;;;;;;;;;;;;;;;;;5113912;28;19960;-79
2022/10/03 07:43:34;;;;;;;;;;;;;;;;;;5113880;28;20384;-77
2022/10/03 07:46:00;;;;;;;;;;;;;;;;;;5111376;28;19918;-76
2022/10/03 07:48:25;;;;;;;;;;;;;;;;;;5093478;28;20276;-77
2022/10/03 07:50:52;;;;;;;;;;;;;;;;;;5095817;28;19912;-79
2022/10/03 07:53:17;;;;;;;;;;;;;;;;;;5110785;28;19911;-78
2022/10/03 07:55:43;;;;;;;;;;;;;;;;;;5096121;28;19995;-77
2022/10/03 07:58:09;;;;;;;;;;;;;;;;;;5094602;28;19916;-75
2022/10/03 08:00:35;;;;;;;;;;;;;;;;;;5100219;28;20367;-76
2022/10/03 08:03:01;;;;;;;;;;;;;;;;;;5105419;28;20268;-76
2022/10/03 08:05:27;;;;;;;;;;;;;;;;;;5103624;28;19919;-75
2022/10/03 08:07:53;;;;;;;;;;;;;;;;;;5102617;28;19919;-77
2022/10/03 08:10:19;;;;;;;;;;;;;;;;;;5105689;28;19911;-76
2022/10/03 08:12:45;;;;;;;;;;;;;;;;;;5096306;28;19962;-76
2022/10/03 08:15:11;;;;;;;;;;;;;;;;;;5098435;28;19912;-76
2022/10/03 08:17:37;;;;;;;;;;;;;;;;;;5114058;28;19912;-75
2022/10/03 08:20:04;;;;;;;;;;;;;;;;;;5109964;28;20022;-75
2022/10/03 08:22:30;;;;;;;;;;;;;;;;;;5117550;28;20279;-78
2022/10/03 08:24:57;;;;;;;;;;;;;;;;;;5093359;28;20338;-78
2022/10/03 08:27:22;;;;;;;;;;;;;;;;;;5097280;28;20390;-82
2022/10/03 08:29:49;;;;;;;;;;;;;;;;;;5097309;28;19912;-78
2022/10/03 08:32:16;;;;;;;;;;;;;;;;;;5080657;28;19918;-77
2022/10/03 08:34:42;;;;;;;;;;;;;;;;;;5117099;28;19914;-76
2022/10/03 08:37:08;;;;;;;;;;;;;;;;;;5116534;28;19908;-78
2022/10/03 08:39:34;;;;;;;;;;;;;;;;;;5098660;28;20383;-74
2022/10/03 08:42:02;;;;;;;;;;;;;;;;;;5096254;28;19911;-75
2022/10/03 08:44:28;;;;;;;;;;;;;;;;;;5096474;28;19915;-75
2022/10/03 08:46:54;;;;;;;;;;;;;;;;;;5096374;28;19908;-76
2022/10/03 08:49:21;;;;;;;;;;;;;;;;;;5096670;28;19923;-75
2022/10/03 08:51:46;;;;;;;;;;;;;;;;;;5097696;28;19916;-75
2022/10/03 08:54:13;;;;;;;;;;;;;;;;;;5099249;28;20295;-77
2022/10/03 08:56:39;;;;;;;;;;;;;;;;;;5096761;28;19912;-77
2022/10/03 08:59:05;;;;;;;;;;;;;;;;;;5084788;28;20012;-77
2022/10/03 09:01:30;;;;;;;;;;;;;;;;;;5116287;28;19934;-78
2022/10/03 09:03:56;;;;;;;;;;;;;;;;;;5112945;28;19911;-78
2022/10/03 09:06:25;;;;;;;;;;;;;;;;;;5104316;28;19912;-76
2022/10/03 09:08:51;;;;;;;;;;;;;;;;;;5096105;28;19908;-77
2022/10/03 09:11:17;;;;;;;;;;;;;;;;;;5095859;28;19916;-80
2022/10/03 09:13:43;;;;;;;;;;;;;;;;;;5096493;28;19938;-81
2022/10/03 09:16:09;;;;;;;;;;;;;;;;;;5078032;28;19912;-78
2022/10/03 09:18:35;;;;;;;;;;;;;;;;;;5080099;28;19945;-80
2022/10/03 09:21:05;;;;;;;;;;;;;;;;;;5095997;28;19912;-75
2022/10/03 09:23:32;;;;;;;;;;;;;;;;;;5079976;28;19947;-80
2022/10/03 09:25:57;;;;;;;;;;;;;;;;;;5098451;28;19912;-77
2022/10/03 09:28:23;;;;;;;;;;;;;;;;;;5095550;28;19916;-80
2022/10/03 09:30:49;;;;;;;;;;;;;;;;;;5077106;28;20276;-78
2022/10/03 09:33:15;;;;;;;;;;;;;;;;;;5095550;28;19916;-79
2022/10/03 09:35:41;;;;;;;;;;;;;;;;;;5097466;28;19918;-78
2022/10/03 09:38:07;;;;;;;;;;;;;;;;;;5095493;28;20004;-77
2022/10/03 09:40:33;;;;;;;;;;;;;;;;;;5099898;28;20287;-79
2022/10/03 09:42:59;;;;;;;;;;;;;;;;;;5097701;28;19916;-79
2022/10/03 09:45:25;;;;;;;;;;;;;;;;;;5095267;28;19908;-79
2022/10/03 09:47:51;;;;;;;;;;;;;;;;;;5076880;28;19958;-82
2022/10/03 09:50:20;;;;;;;;;;;;;;;;;;5076230;28;19912;-78
2022/10/03 09:52:46;;;;;;;;;;;;;;;;;;5078440;28;20380;-79
2022/10/03 09:55:12;;;;;;;;;;;;;;;;;;5094442;28;19933;-79
2022/10/03 09:57:39;;;;;;;;;;;;;;;;;;5094757;28;19930;-80
2022/10/03 10:00:05;;;;;;;;;;;;;;;;;;5093799;28;19920;-79
2022/10/03 10:02:32;;;;;;;;;;;;;;;;;;5089916;28;19916;-79
2022/10/03 10:04:57;;;;;;;;;;;;;;;;;;5115027;28;19912;-77
2022/10/03 10:07:23;;;;;;;;;;;;;;;;;;5115386;28;20002;-79
2022/10/03 10:09:49;;;;;;;;;;;;;;;;;;5115612;28;19914;-76
2022/10/03 10:12:15;;;;;;;;;;;;;;;;;;5100493;28;19908;-78
2022/10/03 10:14:41;;;;;;;;;;;;;;;;;;5096799;28;19912;-75
2022/10/03 10:17:07;;;;;;;;;;;;;;;;;;5094782;28;19993;-75
2022/10/03 10:19:33;;;;;;;;;;;;;;;;;;5094699;28;19915;-75
2022/10/03 10:21:59;;;;;;;;;;;;;;;;;;5094871;28;19919;-76
2022/10/03 10:24:25;;;;;;;;;;;;;;;;;;5094916;28;19908;-76
2022/10/03 10:26:52;;;;;;;;;;;;;;;;;;5096271;28;19908;-74
2022/10/03 10:29:18;;;;;;;;;;;;;;;;;;5076337;28;19912;-75
2022/10/03 10:31:44;;;;;;;;;;;;;;;;;;5098078;28;20030;-76
2022/10/03 10:34:10;;;;;;;;;;;;;;;;;;5112842;28;19912;-81
2022/10/03 10:36:36;;;;;;;;;;;;;;;;;;5115304;28;20319;-81
2022/10/03 10:39:02;;;;;;;;;;;;;;;;;;5114692;28;19912;-81
2022/10/03 10:41:28;;;;;;;;;;;;;;;;;;5114853;28;19919;-78
2022/10/03 10:43:55;;;;;;;;;;;;;;;;;;5114160;28;19996;-81
2022/10/03 10:46:21;;;;;;;;;;;;;;;;;;5114581;28;19908;-79
2022/10/03 10:48:47;;;;;;;;;;;;;;;;;;5114833;28;19912;-79
2022/10/03 10:51:13;;;;;;;;;;;;;;;;;;5114462;28;19997;-79
2022/10/03 10:53:39;;;;;;;;;;;;;;;;;;5115061;28;20363;-81
2022/10/03 10:56:05;;;;;;;;;;;;;;;;;;5114963;28;19908;-79
2022/10/03 10:58:31;;;;;;;;;;;;;;;;;;5096181;28;19908;-81
2022/10/03 11:00:57;;;;;;;;;;;;;;;;;;5113945;28;19971;-79
2022/10/03 11:03:24;;;;;;;;;;;;;;;;;;5114713;28;20391;-80
2022/10/03 11:05:50;;;;;;;;;;;;;;;;;;5114234;28;20329;-79
2022/10/03 11:08:16;;;;;;;;;;;;;;;;;;5114543;28;20022;-80
2022/10/03 11:10:42;;;;;;;;;;;;;;;;;;5114264;28;20335;-78
2022/10/03 11:13:08;;;;;;;;;;;;;;;;;;5095944;28;19977;-80
2022/10/03 11:15:35;;;;;;;;;;;;;;;;;;5114451;28;19908;-80
2022/10/03 11:18:01;;;;;;;;;;;;;;;;;;5114121;28;19908;-78
2022/10/03 11:20:27;;;;;;;;;;;;;;;;;;5114709;28;19912;-79
2022/10/03 11:22:53;;;;;;;;;;;;;;;;;;5114325;28;19912;-82
2022/10/03 11:25:19;;;;;;;;;;;;;;;;;;5095632;28;19908;-79
2022/10/03 11:27:45;;;;;;;;;;;;;;;;;;5095699;28;19907;-81
2022/10/03 11:30:11;;;;;;;;;;;;;;;;;;5114002;28;19908;-79
2022/10/03 11:32:36;;;;;;;;;;;;;;;;;;5114046;28;19919;-81
2022/10/03 11:35:02;;;;;;;;;;;;;;;;;;5114290;28;19908;-79
2022/10/03 11:37:28;;;;;;;;;;;;;;;;;;5113997;28;19946;-81
2022/10/03 11:39:54;;;;;;;;;;;;;;;;;;5114243;28;19908;-78
2022/10/03 11:42:20;;;;;;;;;;;;;;;;;;5114148;28;19919;-81
2022/10/03 11:44:46;;;;;;;;;;;;;;;;;;5095641;28;19912;-79
2022/10/03 11:47:12;;;;;;;;;;;;;;;;;;5114431;28;20352;-78
2022/10/03 11:49:38;;;;;;;;;;;;;;;;;;5113884;28;19914;-79
2022/10/03 11:52:04;;;;;;;;;;;;;;;;;;5113846;28;19912;-80
2022/10/03 11:54:30;;;;;;;;;;;;;;;;;;5096942;28;20376;-80
2022/10/03 11:56:56;;;;;;;;;;;;;;;;;;5118892;28;19947;-80
2022/10/03 11:59:22;;;;;;;;;;;;;;;;;;5117652;28;19908;-78
2022/10/03 12:01:49;;;;;;;;;;;;;;;;;;5117662;28;19911;-80
2022/10/03 12:04:15;;;;;;;;;;;;;;;;;;5118057;28;19914;-79
2022/10/03 12:09:25;;;;;;;;;;;;;;;;;;5106280;28;19919;-78
2022/10/03 12:11:52;;;;;;;;;;;;;;;;;;5118301;28;19908;-79
2022/10/03 12:14:18;;;;;;;;;;;;;;;;;;5120510;28;19912;-81
2022/10/03 12:16:44;;;;;;;;;;;;;;;;;;5102799;28;20406;-79
2022/10/03 12:19:10;;;;;;;;;;;;;;;;;;5097295;28;20007;-77
2022/10/03 12:21:36;;;;;;;;;;;;;;;;;;5077852;28;20340;-78
2022/10/03 12:24:02;;;;;;;;;;;;;;;;;;5097151;28;19922;-76
2022/10/03 12:26:28;;;;;;;;;;;;;;;;;;5096391;28;19908;-76
2022/10/03 12:28:54;;;;;;;;;;;;;;;;;;5103123;27;19954;-78
2022/10/03 12:31:20;;;;;;;;;;;;;;;;;;5105257;27;20349;-75
2022/10/03 12:33:46;;;;;;;;;;;;;;;;;;5113328;28;19907;-77
2022/10/03 12:36:14;;;;;;;;;;;;;;;;;;5116710;28;20376;-78
2022/10/03 12:38:40;;;;;;;;;;;;;;;;;;5117680;28;19908;-77
2022/10/03 12:41:06;;;;;;;;;;;;;;;;;;5113986;28;19980;-79
2022/10/03 12:43:33;;;;;;;;;;;;;;;;;;5107114;27;20385;-76
2022/10/03 12:46:00;;;;;;;;;;;;;;;;;;5112498;28;19912;-76
2022/10/03 12:48:26;;;;;;;;;;;;;;;;;;5116870;28;19918;-78
2022/10/03 12:50:54;;;;;;;;;;;;;;;;;;5115438;28;20007;-76
2022/10/03 12:53:20;;;;;;;;;;;;;;;;;;5116784;28;20431;-77
2022/10/03 12:55:45;;;;;;;;;;;;;;;;;;5115069;28;19943;-78
2022/10/03 12:58:11;;;;;;;;;;;;;;;;;;5108807;28;19998;-78
2022/10/03 13:00:37;;;;;;;;;;;;;;;;;;5079665;28;19924;-77
2022/10/03 13:03:03;;;;;;;;;;;;;;;;;;5116472;28;19912;-78
2022/10/03 13:05:29;;;;;;;;;;;;;;;;;;5114318;28;19953;-80
2022/10/03 13:07:56;;;;;;;;;;;;;;;;;;5078394;28;19913;-79
2022/10/03 13:10:23;;;;;;;;;;;;;;;;;;5096094;28;19942;-78
2022/10/03 13:12:51;;;;;;;;;;;;;;;;;;5096000;28;19915;-80
2022/10/03 13:15:17;;;;;;;;;;;;;;;;;;5096040;28;19912;-76
2022/10/03 13:17:48;;;;;;;;;;;;;;;;;;5101619;28;19919;-78
2022/10/03 13:20:14;;;;;;;;;;;;;;;;;;5105857;28;19916;-76
2022/10/03 13:22:40;;;;;;;;;;;;;;;;;;5107330;28;20010;-74
2022/10/03 13:25:06;;;;;;;;;;;;;;;;;;5110845;28;19959;-74
2022/10/03 13:27:32;;;;;;;;;;;;;;;;;;5113808;28;19980;-78
2022/10/03 13:29:57;;;;;;;;;;;;;;;;;;5107736;28;19995;-78
2022/10/03 13:32:23;;;;;;;;;;;;;;;;;;5103988;28;19911;-80
2022/10/03 13:34:49;;;;;;;;;;;;;;;;;;5083083;28;19919;-79
2022/10/03 13:37:15;;;;;;;;;;;;;;;;;;5095442;28;19912;-79
2022/10/03 13:39:41;;;;;;;;;;;;;;;;;;5107330;28;19950;-77
2022/10/03 13:42:09;;;;;;;;;;;;;;;;;;5112379;28;19985;-78
2022/10/03 13:44:35;;;;;;;;;;;;;;;;;;5095828;28;20010;-84
2022/10/03 13:47:01;;;;;;;;;;;;;;;;;;5076401;28;19955;-78
2022/10/03 13:49:31;;;;;;;;;;;;;;;;;;5106021;28;19915;-77
2022/10/03 13:51:58;;;;;;;;;;;;;;;;;;5115881;28;19927;-78
2022/10/03 13:54:24;;;;;;;;;;;;;;;;;;5109681;28;20287;-77
2022/10/03 13:56:50;;;;;;;;;;;;;;;;;;5106489;28;19982;-80
2022/10/03 13:59:16;;;;;;;;;;;;;;;;;;5114806;28;20299;-79
2022/10/03 14:01:42;;;;;;;;;;;;;;;;;;5095835;28;20013;-77
2022/10/03 14:04:08;;;;;;;;;;;;;;;;;;5095021;28;19908;-77
2022/10/03 14:06:34;;;;;;;;;;;;;;;;;;5094951;28;20393;-79
2022/10/03 14:09:00;;;;;;;;;;;;;;;;;;5094951;28;19908;-78
2022/10/03 14:11:26;;;;;;;;;;;;;;;;;;5094897;28;19991;-78
2022/10/03 14:13:52;;;;;;;;;;;;;;;;;;5097934;28;20006;-79
2022/10/03 14:16:19;;;;;;;;;;;;;;;;;;5106219;28;20343;-79
2022/10/03 14:18:45;;;;;;;;;;;;;;;;;;5113216;28;19912;-79
2022/10/03 14:21:11;;;;;;;;;;;;;;;;;;5115254;28;20274;-79
2022/10/03 14:23:36;;;;;;;;;;;;;;;;;;5113416;28;19911;-76
2022/10/03 14:26:03;;;;;;;;;;;;;;;;;;5097885;28;19957;-77
2022/10/03 14:28:29;;;;;;;;;;;;;;;;;;5094649;28;19923;-79
2022/10/03 14:30:55;;;;;;;;;;;;;;;;;;5076227;28;19912;-79
2022/10/03 14:33:22;;;;;;;;;;;;;;;;;;5098147;28;20391;-77
2022/10/03 14:35:48;;;;;;;;;;;;;;;;;;5113574;28;20324;-77
2022/10/03 14:38:14;;;;;;;;;;;;;;;;;;5096593;28;19981;-77
2022/10/03 14:40:40;;;;;;;;;;;;;;;;;;5097454;28;19912;-77
2022/10/03 14:43:06;;;;;;;;;;;;;;;;;;5107756;28;20429;-77
2022/10/03 14:45:32;;;;;;;;;;;;;;;;;;5094273;28;19909;-77
2022/10/03 14:47:57;;;;;;;;;;;;;;;;;;5097423;28;20273;-79
2022/10/03 14:50:23;;;;;;;;;;;;;;;;;;5083330;28;19915;-76
2022/10/03 14:52:50;;;;;;;;;;;;;;;;;;5097597;28;19946;-76
2022/10/03 14:55:16;;;;;;;;;;;;;;;;;;5100110;28;19951;-77
2022/10/03 14:57:42;;;;;;;;;;;;;;;;;;5094814;28;20314;-78
2022/10/03 15:00:08;;;;;;;;;;;;;;;;;;5094073;28;19920;-77
2022/10/03 15:02:35;;;;;;;;;;;;;;;;;;5093909;28;19912;-78
2022/10/03 15:05:01;;;;;;;;;;;;;;;;;;5094090;28;19907;-77
2022/10/03 15:07:27;;;;;;;;;;;;;;;;;;5093973;28;20387;-77
2022/10/03 15:09:56;;;;;;;;;;;;;;;;;;5075581;28;19919;-76
2022/10/03 15:12:23;;;;;;;;;;;;;;;;;;5094296;28;20022;-75
2022/10/03 15:14:49;;;;;;;;;;;;;;;;;;5093708;28;19927;-75
2022/10/03 15:17:15;;;;;;;;;;;;;;;;;;5087347;28;19908;-78
2022/10/03 15:19:42;;;;;;;;;;;;;;;;;;5112763;28;20018;-74
2022/10/03 15:22:09;;;;;;;;;;;;;;;;;;5113745;28;19919;-75
2022/10/03 15:24:35;;;;;;;;;;;;;;;;;;5114435;28;19907;-74
2022/10/03 15:27:01;;;;;;;;;;;;;;;;;;5115248;28;19920;-75
2022/10/03 15:29:27;;;;;;;;;;;;;;;;;;5111562;28;19916;-78
2022/10/03 15:31:53;;;;;;;;;;;;;;;;;;5118693;28;19915;-76
2022/10/03 15:34:18;;;;;;;;;;;;;;;;;;5118550;28;19908;-76
2022/10/03 15:36:44;;;;;;;;;;;;;;;;;;5118513;28;19915;-77
2022/10/03 15:39:10;;;;;;;;;;;;;;;;;;5118171;28;20412;-77
2022/10/03 15:41:36;;;;;;;;;;;;;;;;;;5118117;28;20005;-76
2022/10/03 15:44:03;;;;;;;;;;;;;;;;;;5118660;28;20347;-77
2022/10/03 15:46:29;;;;;;;;;;;;;;;;;;5118091;28;19915;-77
2022/10/03 15:48:55;;;;;;;;;;;;;;;;;;5118599;28;20267;-76
2022/10/03 15:51:21;;;;;;;;;;;;;;;;;;5117984;28;20283;-77
2022/10/03 15:53:47;;;;;;;;;;;;;;;;;;5117936;28;19916;-77
2022/10/03 15:56:17;;;;;;;;;;;;;;;;;;5118465;28;20323;-77
2022/10/03 15:58:43;;;;;;;;;;;;;;;;;;5118379;28;19908;-77
2022/10/03 16:01:10;;;;;;;;;;;;;;;;;;5117353;28;20390;-77
2022/10/03 16:03:35;;;;;;;;;;;;;;;;;;5118346;28;19916;-77
2022/10/03 16:06:01;;;;;;;;;;;;;;;;;;5117710;28;19911;-77
2022/10/03 16:08:27;;;;;;;;;;;;;;;;;;5117651;28;19919;-76
2022/10/03 16:10:53;;;;;;;;;;;;;;;;;;5117886;28;19908;-77
2022/10/03 16:13:19;;;;;;;;;;;;;;;;;;5117543;28;20374;-77
2022/10/03 16:15:45;;;;;;;;;;;;;;;;;;5117755;28;19949;-76
2022/10/03 16:18:11;;;;;;;;;;;;;;;;;;5117455;28;19908;-77
2022/10/03 16:20:37;;;;;;;;;;;;;;;;;;5117426;28;19911;-76
2022/10/03 16:23:03;;;;;;;;;;;;;;;;;;5117561;28;19959;-76
2022/10/03 16:25:29;;;;;;;;;;;;;;;;;;5117339;28;19915;-77
2022/10/03 16:27:55;;;;;;;;;;;;;;;;;;5117186;28;19922;-77
2022/10/03 16:30:21;;;;;;;;;;;;;;;;;;5098928;28;19908;-77
2022/10/03 16:32:47;;;;;;;;;;;;;;;;;;5117509;28;20018;-76
2022/10/03 16:35:13;;;;;;;;;;;;;;;;;;5117138;28;19908;-77
2022/10/03 16:37:40;;;;;;;;;;;;;;;;;;5117373;28;19908;-76
2022/10/03 16:40:07;;;;;;;;;;;;;;;;;;5116754;28;20367;-76
2022/10/03 16:42:32;;;;;;;;;;;;;;;;;;5116665;28;19912;-77
2022/10/03 16:45:01;;;;;;;;;;;;;;;;;;5117192;28;19969;-77
2022/10/03 16:47:27;;;;;;;;;;;;;;;;;;5098601;28;20380;-77
2022/10/03 16:52:37;;;;;;;;;;;;;;;;;;5116540;28;19918;-76
2022/10/03 16:55:03;;;;;;;;;;;;;;;;;;5117005;28;19907;-76